Time;durP1;ratioP1;P1;durP2;ratioP2;P2;SDS_P1;SDS_P2;PMS_P1;PMS_P2;Temp;Humidity;BMP_temperature;BMP_pressure;BME280_temperature;BME280_humidity;BME280_pressure;Samples;Min_cycle;Max_cycle;Signal;HPM_P1;HPM_P2
2020/12/09 00:01:02;;;;;;;5.17;4.67;;;;;;;18.71;47.53;99402.23;;;;-54
2020/12/09 00:04:02;;;;;;;5.31;4.72;;;;;;;18.69;47.45;99407.69;;;;-54
2020/12/09 00:07:02;;;;;;;5.23;4.73;;;;;;;18.68;47.52;99415.81;;;;-53
2020/12/09 00:10:02;;;;;;;5.50;5.00;;;;;;;18.66;47.52;99422.48;;;;-53
2020/12/09 00:13:02;;;;;;;5.53;5.03;;;;;;;18.65;47.52;99424.67;;;;-59
2020/12/09 00:16:02;;;;;;;5.38;4.88;;;;;;;18.63;47.52;99423.23;;;;-60
2020/12/09 00:19:03;;;;;;;5.45;4.95;;;;;;;18.62;47.52;99423.91;;;;-59
2020/12/09 00:22:03;;;;;;;5.79;4.92;;;;;;;18.59;47.51;99420.11;;;;-53
2020/12/09 00:25:02;;;;;;;5.44;4.94;;;;;;;18.58;47.47;99416.04;;;;-57
2020/12/09 00:28:02;;;;;;;5.15;4.72;;;;;;;18.56;47.46;99416.63;;;;-57
2020/12/09 00:31:02;;;;;;;5.34;4.84;;;;;;;18.54;47.59;99413.71;;;;-57
2020/12/09 00:34:02;;;;;;;5.65;5.15;;;;;;;18.54;47.53;99413.88;;;;-58
2020/12/09 00:37:02;;;;;;;5.37;4.87;;;;;;;18.52;47.55;99414.86;;;;-57
2020/12/09 00:40:02;;;;;;;5.59;5.07;;;;;;;18.50;47.58;99420.06;;;;-57
2020/12/09 00:43:02;;;;;;;6.19;5.09;;;;;;;18.50;47.58;99426.48;;;;-57
2020/12/09 00:46:02;;;;;;;5.76;5.01;;;;;;;18.47;47.54;99430.64;;;;-52
2020/12/09 00:49:02;;;;;;;5.17;4.67;;;;;;;18.47;47.53;99435.11;;;;-53
2020/12/09 00:52:02;;;;;;;5.71;5.03;;;;;;;18.44;47.59;99432.34;;;;-53
2020/12/09 00:55:02;;;;;;;5.45;4.95;;;;;;;18.43;47.61;99436.43;;;;-60
2020/12/09 00:58:02;;;;;;;5.29;4.79;;;;;;;18.42;47.53;99440.39;;;;-60
2020/12/09 01:01:02;;;;;;;5.32;4.82;;;;;;;18.40;47.55;99433.52;;;;-54
2020/12/09 01:04:02;;;;;;;5.58;5.08;;;;;;;18.39;47.65;99427.28;;;;-54
2020/12/09 01:07:02;;;;;;;5.38;4.88;;;;;;;18.37;47.57;99426.72;;;;-54
2020/12/09 01:10:02;;;;;;;5.69;5.19;;;;;;;18.36;47.65;99420.64;;;;-54
2020/12/09 01:13:02;;;;;;;5.27;4.77;;;;;;;18.34;47.60;99413.69;;;;-54
2020/12/09 01:16:02;;;;;;;5.47;4.97;;;;;;;18.32;47.61;99408.24;;;;-53
2020/12/09 01:19:02;;;;;;;5.37;4.87;;;;;;;18.31;47.56;99413.45;;;;-53
2020/12/09 01:22:02;;;;;;;5.59;5.07;;;;;;;18.30;47.69;99417.50;;;;-53
2020/12/09 01:25:02;;;;;;;5.51;5.01;;;;;;;18.29;47.61;99421.83;;;;-57
2020/12/09 01:28:02;;;;;;;5.48;4.98;;;;;;;18.27;47.57;99425.08;;;;-57
2020/12/09 01:31:02;;;;;;;5.41;4.91;;;;;;;18.25;47.66;99424.84;;;;-54
2020/12/09 01:34:02;;;;;;;5.31;4.81;;;;;;;18.24;47.54;99432.96;;;;-55
2020/12/09 01:37:02;;;;;;;5.18;4.70;;;;;;;18.22;47.53;99436.03;;;;-57
2020/12/09 01:40:02;;;;;;;5.14;4.68;;;;;;;18.22;47.66;99438.23;;;;-53
2020/12/09 01:43:02;;;;;;;5.07;4.64;;;;;;;18.19;47.66;99443.34;;;;-53
2020/12/09 01:46:02;;;;;;;5.57;5.07;;;;;;;18.18;47.67;99444.91;;;;-53
2020/12/09 01:49:02;;;;;;;5.37;4.87;;;;;;;18.18;47.71;99446.27;;;;-53
2020/12/09 01:52:03;;;;;;;5.37;4.87;;;;;;;18.16;47.63;99448.08;;;;-53
2020/12/09 01:55:02;;;;;;;5.43;4.93;;;;;;;18.15;47.73;99453.11;;;;-53
2020/12/09 01:58:02;;;;;;;5.27;4.79;;;;;;;18.14;47.59;99457.66;;;;-57
2020/12/09 02:01:02;;;;;;;5.56;5.04;;;;;;;18.12;47.74;99462.13;;;;-57
2020/12/09 02:04:02;;;;;;;5.46;4.96;;;;;;;18.12;47.61;99464.16;;;;-54
2020/12/09 02:07:02;;;;;;;5.17;4.73;;;;;;;18.10;47.64;99466.27;;;;-59
2020/12/09 02:10:02;;;;;;;5.41;4.91;;;;;;;18.09;47.63;99466.98;;;;-53
2020/12/09 02:13:02;;;;;;;5.67;5.13;;;;;;;18.07;47.58;99470.66;;;;-53
2020/12/09 02:16:02;;;;;;;5.41;4.91;;;;;;;18.06;47.75;99469.35;;;;-53
2020/12/09 02:19:02;;;;;;;5.34;4.86;;;;;;;18.05;47.67;99470.23;;;;-58
2020/12/09 02:22:02;;;;;;;5.39;4.89;;;;;;;18.05;47.65;99466.83;;;;-57
2020/12/09 02:25:02;;;;;;;5.65;4.96;;;;;;;18.04;47.69;99467.59;;;;-53
2020/12/09 02:28:02;;;;;;;5.39;4.89;;;;;;;18.02;47.77;99471.48;;;;-53
2020/12/09 02:31:02;;;;;;;5.37;4.87;;;;;;;18.00;47.70;99471.00;;;;-53
2020/12/09 02:34:02;;;;;;;5.47;4.93;;;;;;;18.01;47.73;99475.04;;;;-53
2020/12/09 02:37:02;;;;;;;5.39;4.89;;;;;;;17.99;47.67;99471.88;;;;-54
2020/12/09 02:40:02;;;;;;;5.43;4.93;;;;;;;17.98;47.60;99473.11;;;;-57
2020/12/09 02:43:02;;;;;;;5.35;4.85;;;;;;;17.98;47.77;99478.71;;;;-57
2020/12/09 02:46:02;;;;;;;5.36;4.86;;;;;;;17.97;47.77;99480.42;;;;-60
2020/12/09 02:49:02;;;;;;;5.05;4.59;;;;;;;17.95;47.71;99486.51;;;;-53
2020/12/09 02:52:02;;;;;;;5.30;4.80;;;;;;;17.95;47.67;99492.89;;;;-57
2020/12/09 02:55:02;;;;;;;5.21;4.71;;;;;;;17.94;47.72;99497.60;;;;-57
2020/12/09 02:58:02;;;;;;;5.25;4.77;;;;;;;17.93;47.73;99494.45;;;;-57
2020/12/09 03:01:02;;;;;;;5.20;4.70;;;;;;;17.92;47.71;99489.02;;;;-60
2020/12/09 03:04:02;;;;;;;5.35;4.85;;;;;;;17.91;47.74;99495.92;;;;-60
2020/12/09 03:07:02;;;;;;;5.15;4.72;;;;;;;17.91;47.78;99510.27;;;;-59
2020/12/09 03:10:02;;;;;;;5.17;4.68;;;;;;;17.90;47.74;99514.47;;;;-60
2020/12/09 03:13:02;;;;;;;5.49;4.99;;;;;;;17.89;47.72;99510.03;;;;-60
2020/12/09 03:16:02;;;;;;;5.32;4.82;;;;;;;17.88;47.75;99509.77;;;;-60
2020/12/09 03:19:02;;;;;;;5.40;4.90;;;;;;;17.87;47.66;99511.56;;;;-60
2020/12/09 03:22:02;;;;;;;5.21;4.71;;;;;;;17.86;47.74;99516.98;;;;-60
2020/12/09 03:25:02;;;;;;;5.13;4.71;;;;;;;17.85;47.70;99518.06;;;;-57
2020/12/09 03:28:02;;;;;;;5.17;4.67;;;;;;;17.84;47.68;99520.48;;;;-57
2020/12/09 03:31:02;;;;;;;5.24;4.73;;;;;;;17.84;47.71;99516.35;;;;-53
2020/12/09 03:34:02;;;;;;;5.37;4.87;;;;;;;17.82;47.77;99521.91;;;;-54
2020/12/09 03:37:02;;;;;;;5.13;4.70;;;;;;;17.82;47.68;99529.20;;;;-54
2020/12/09 03:40:02;;;;;;;5.13;4.67;;;;;;;17.81;47.76;99536.44;;;;-54
2020/12/09 03:43:02;;;;;;;5.23;4.80;;;;;;;17.80;47.79;99539.41;;;;-57
2020/12/09 03:46:02;;;;;;;5.47;4.97;;;;;;;17.79;47.77;99543.41;;;;-58
2020/12/09 03:49:02;;;;;;;5.26;4.77;;;;;;;17.78;47.81;99544.06;;;;-57
2020/12/09 03:52:02;;;;;;;5.40;4.90;;;;;;;17.78;47.70;99545.42;;;;-57
2020/12/09 03:55:02;;;;;;;5.29;4.79;;;;;;;17.76;47.73;99539.03;;;;-57
2020/12/09 03:58:02;;;;;;;5.20;4.69;;;;;;;17.76;47.85;99544.69;;;;-53
2020/12/09 04:01:02;;;;;;;5.12;4.64;;;;;;;17.74;47.88;99546.55;;;;-53
2020/12/09 04:04:02;;;;;;;5.06;4.62;;;;;;;17.74;47.79;99552.55;;;;-53
2020/12/09 04:07:02;;;;;;;5.25;4.75;;;;;;;17.73;47.74;99559.70;;;;-54
2020/12/09 04:10:02;;;;;;;5.12;4.62;;;;;;;17.71;47.75;99555.16;;;;-54
2020/12/09 04:13:02;;;;;;;4.76;4.36;;;;;;;17.71;47.77;99555.41;;;;-53
2020/12/09 04:16:02;;;;;;;5.29;4.79;;;;;;;17.70;47.74;99556.70;;;;-54
2020/12/09 04:19:02;;;;;;;5.34;4.85;;;;;;;17.69;47.80;99559.45;;;;-54
2020/12/09 04:22:02;;;;;;;5.09;4.62;;;;;;;17.67;47.77;99560.99;;;;-57
2020/12/09 04:25:02;;;;;;;5.10;4.64;;;;;;;17.68;47.84;99559.92;;;;-57
2020/12/09 04:28:02;;;;;;;4.73;4.33;;;;;;;17.66;47.83;99563.36;;;;-57
2020/12/09 04:31:02;;;;;;;5.09;4.59;;;;;;;17.65;47.77;99562.86;;;;-57
2020/12/09 04:34:02;;;;;;;4.92;4.45;;;;;;;17.65;47.85;99559.20;;;;-58
2020/12/09 04:37:02;;;;;;;4.85;4.45;;;;;;;17.64;47.83;99558.17;;;;-57
2020/12/09 04:40:02;;;;;;;4.93;4.50;;;;;;;17.63;47.74;99556.13;;;;-57
2020/12/09 04:43:02;;;;;;;4.99;4.57;;;;;;;17.63;47.80;99552.41;;;;-57
2020/12/09 04:46:02;;;;;;;4.88;4.48;;;;;;;17.62;47.87;99551.20;;;;-53
2020/12/09 04:49:06;;;;;;;5.23;4.73;;;;;;;17.61;47.78;99559.46;;;;-53
2020/12/09 04:52:02;;;;;;;5.11;4.61;;;;;;;17.60;47.79;99564.89;;;;-53
2020/12/09 04:55:02;;;;;;;5.09;4.59;;;;;;;17.59;47.83;99563.59;;;;-53
2020/12/09 04:58:02;;;;;;;5.41;4.91;;;;;;;17.58;47.96;99572.59;;;;-60
2020/12/09 05:01:02;;;;;;;5.26;4.73;;;;;;;17.57;47.84;99568.68;;;;-60
2020/12/09 05:04:02;;;;;;;5.06;4.59;;;;;;;17.58;47.78;99571.87;;;;-60
2020/12/09 05:07:05;;;;;;;5.16;4.75;;;;;;;17.56;47.89;99569.19;;;;-60
2020/12/09 05:10:02;;;;;;;5.06;4.56;;;;;;;17.56;47.84;99569.19;;;;-54
2020/12/09 05:13:02;;;;;;;4.83;4.38;;;;;;;17.55;47.86;99572.24;;;;-60
2020/12/09 05:16:02;;;;;;;4.88;4.44;;;;;;;17.55;47.87;99575.25;;;;-59
2020/12/09 05:19:02;;;;;;;4.76;4.36;;;;;;;17.55;47.82;99579.70;;;;-60
2020/12/09 05:22:02;;;;;;;4.73;4.33;;;;;;;17.54;47.88;99590.98;;;;-52
2020/12/09 05:25:02;;;;;;;4.82;4.42;;;;;;;17.53;47.91;99596.95;;;;-60
2020/12/09 05:28:02;;;;;;;4.69;4.29;;;;;;;17.52;47.77;99595.51;;;;-54
2020/12/09 05:31:02;;;;;;;4.57;4.17;;;;;;;17.53;47.86;99596.72;;;;-53
2020/12/09 05:34:02;;;;;;;4.87;4.47;;;;;;;17.52;47.89;99599.48;;;;-53
2020/12/09 05:37:02;;;;;;;4.68;4.28;;;;;;;17.50;47.89;99600.61;;;;-53
2020/12/09 05:40:02;;;;;;;4.69;4.29;;;;;;;17.49;47.98;99599.66;;;;-54
2020/12/09 05:43:02;;;;;;;5.11;4.61;;;;;;;17.50;47.99;99599.64;;;;-53
2020/12/09 05:46:02;;;;;;;4.75;4.35;;;;;;;17.48;47.85;99595.99;;;;-53
2020/12/09 05:49:02;;;;;;;4.86;4.46;;;;;;;17.48;47.99;99599.23;;;;-54
2020/12/09 05:52:03;;;;;;;4.82;4.27;;;;;;;17.47;47.90;99601.27;;;;-53
2020/12/09 05:55:02;;;;;;;4.68;4.28;;;;;;;17.47;47.99;99604.65;;;;-53
2020/12/09 05:58:02;;;;;;;4.89;4.45;;;;;;;17.47;47.87;99610.31;;;;-54
2020/12/09 06:01:02;;;;;;;4.77;4.37;;;;;;;17.46;47.97;99606.44;;;;-53
2020/12/09 06:04:02;;;;;;;8.81;7.91;;;;;;;17.40;46.19;99618.49;;;;-59
2020/12/09 06:07:02;;;;;;;11.64;10.36;;;;;;;17.22;44.95;99622.51;;;;-58
2020/12/09 06:10:02;;;;;;;12.99;11.66;;;;;;;17.05;44.32;99622.14;;;;-59
2020/12/09 06:13:02;;;;;;;13.54;12.13;;;;;;;17.03;44.48;99612.51;;;;-61
2020/12/09 06:16:02;;;;;;;11.33;10.23;;;;;;;17.10;45.42;99612.77;;;;-61
2020/12/09 06:19:02;;;;;;;10.24;9.21;;;;;;;17.13;45.82;99618.94;;;;-60
2020/12/09 06:22:02;;;;;;;9.56;8.63;;;;;;;17.15;45.97;99622.18;;;;-61
2020/12/09 06:25:02;;;;;;;9.50;8.50;;;;;;;17.16;46.17;99619.28;;;;-61
2020/12/09 06:28:02;;;;;;;9.29;7.86;;;;;;;17.17;46.20;99618.70;;;;-61
2020/12/09 06:31:02;;;;;;;8.37;7.54;;;;;;;17.19;46.32;99625.51;;;;-60
2020/12/09 06:34:02;;;;;;;8.51;6.91;;;;;;;17.19;46.50;99629.72;;;;-60
2020/12/09 06:37:02;;;;;;;7.84;7.11;;;;;;;17.18;46.47;99623.70;;;;-52
2020/12/09 06:40:02;;;;;;;8.49;6.99;;;;;;;17.19;46.70;99625.03;;;;-51
2020/12/09 06:43:02;;;;;;;7.49;6.69;;;;;;;17.19;46.78;99620.82;;;;-61
2020/12/09 06:46:02;;;;;;;7.05;6.35;;;;;;;17.19;46.72;99616.94;;;;-52
2020/12/09 06:49:02;;;;;;;7.87;6.65;;;;;;;17.18;46.86;99624.30;;;;-60
2020/12/09 06:52:02;;;;;;;6.51;5.91;;;;;;;17.19;46.80;99632.16;;;;-60
2020/12/09 06:55:02;;;;;;;6.75;5.93;;;;;;;17.18;46.97;99640.82;;;;-60
2020/12/09 06:58:02;;;;;;;6.51;5.83;;;;;;;17.19;47.04;99646.24;;;;-60
2020/12/09 07:01:02;;;;;;;6.12;5.52;;;;;;;17.18;47.03;99655.06;;;;-51
2020/12/09 07:04:02;;;;;;;6.39;5.70;;;;;;;17.19;46.98;99657.48;;;;-53
2020/12/09 07:07:02;;;;;;;6.51;5.82;;;;;;;17.19;47.07;99649.48;;;;-52
2020/12/09 07:10:02;;;;;;;6.26;5.67;;;;;;;17.17;47.03;99652.70;;;;-51
2020/12/09 07:13:02;;;;;;;6.01;5.37;;;;;;;17.18;47.08;99662.89;;;;-51
2020/12/09 07:16:02;;;;;;;5.91;5.40;;;;;;;17.17;47.12;99661.69;;;;-52
2020/12/09 07:19:02;;;;;;;6.03;5.24;;;;;;;17.19;47.25;99661.45;;;;-52
2020/12/09 07:22:02;;;;;;;6.45;5.08;;;;;;;17.21;47.24;99663.65;;;;-52
2020/12/09 07:25:02;;;;;;;5.38;4.80;;;;;;;17.23;47.27;99671.09;;;;-52
2020/12/09 07:28:02;;;;;;;4.91;4.43;;;;;;;17.26;47.22;99675.49;;;;-51
2020/12/09 07:31:02;;;;;;;5.29;4.79;;;;;;;17.29;47.46;99683.67;;;;-52
2020/12/09 07:34:02;;;;;;;5.07;4.57;;;;;;;17.33;47.55;99686.01;;;;-53
2020/12/09 07:37:02;;;;;;;4.98;4.53;;;;;;;17.36;47.59;99700.03;;;;-51
2020/12/09 07:40:03;;;;;;;4.82;4.37;;;;;;;17.41;47.61;99703.80;;;;-51
2020/12/09 07:43:02;;;;;;;4.83;4.33;;;;;;;17.45;47.57;99704.53;;;;-51
2020/12/09 07:46:02;;;;;;;4.99;4.49;;;;;;;17.51;47.53;99704.20;;;;-51
2020/12/09 07:49:02;;;;;;;4.58;4.18;;;;;;;17.56;47.64;99703.91;;;;-51
2020/12/09 07:52:02;;;;;;;5.29;4.32;;;;;;;17.60;47.70;99701.86;;;;-53
2020/12/09 07:55:02;;;;;;;4.45;4.05;;;;;;;17.64;47.72;99706.19;;;;-53
2020/12/09 07:58:02;;;;;;;4.64;4.24;;;;;;;17.70;47.75;99712.66;;;;-52
2020/12/09 08:01:02;;;;;;;4.72;3.93;;;;;;;17.73;47.81;99717.78;;;;-51
2020/12/09 08:04:02;;;;;;;4.60;4.20;;;;;;;17.78;47.80;99717.86;;;;-51
2020/12/09 08:07:02;;;;;;;4.41;4.01;;;;;;;17.81;47.82;99729.14;;;;-52
2020/12/09 08:10:02;;;;;;;4.39;3.99;;;;;;;17.85;47.82;99727.41;;;;-51
2020/12/09 08:13:02;;;;;;;4.37;3.97;;;;;;;17.87;47.85;99729.43;;;;-51
2020/12/09 08:16:02;;;;;;;4.75;4.00;;;;;;;17.90;47.84;99729.83;;;;-52
2020/12/09 08:19:02;;;;;;;4.28;3.88;;;;;;;17.91;47.90;99732.76;;;;-52
2020/12/09 08:22:02;;;;;;;4.37;3.97;;;;;;;17.93;47.79;99734.05;;;;-53
2020/12/09 08:25:02;;;;;;;4.29;3.89;;;;;;;17.94;47.82;99730.48;;;;-52
2020/12/09 08:28:02;;;;;;;4.91;4.11;;;;;;;17.94;47.80;99729.66;;;;-51
2020/12/09 08:31:02;;;;;;;4.23;3.83;;;;;;;17.95;47.70;99729.77;;;;-52
2020/12/09 08:34:02;;;;;;;4.07;3.67;;;;;;;17.96;47.66;99735.83;;;;-51
2020/12/09 08:37:02;;;;;;;4.19;3.79;;;;;;;17.96;47.70;99735.75;;;;-51
2020/12/09 08:40:02;;;;;;;3.87;3.53;;;;;;;17.96;47.71;99734.86;;;;-51
2020/12/09 08:43:02;;;;;;;4.49;4.09;;;;;;;17.97;47.62;99740.28;;;;-51
2020/12/09 08:46:02;;;;;;;4.19;3.84;;;;;;;17.98;47.68;99744.19;;;;-51
2020/12/09 08:49:03;;;;;;;4.15;3.75;;;;;;;17.97;47.61;99741.25;;;;-51
2020/12/09 08:52:02;;;;;;;4.12;3.59;;;;;;;17.97;47.61;99742.87;;;;-52
2020/12/09 08:55:03;;;;;;;4.56;3.85;;;;;;;17.98;47.77;99746.05;;;;-49
2020/12/09 08:58:02;;;;;;;4.59;3.93;;;;;;;18.01;48.56;99749.85;;;;-49
2020/12/09 09:01:02;;;;;;;4.17;3.79;;;;;;;18.02;48.72;99751.73;;;;-48
2020/12/09 09:04:06;;;;;;;4.73;4.23;;;;;;;18.07;49.08;99760.64;;;;-51
2020/12/09 09:07:03;;;;;;;4.23;3.83;;;;;;;18.11;49.19;99760.73;;;;-51
2020/12/09 09:10:02;;;;;;;4.65;3.93;;;;;;;18.17;49.06;99763.50;;;;-52
2020/12/09 09:13:02;;;;;;;4.13;3.73;;;;;;;18.20;49.01;99766.65;;;;-52
2020/12/09 09:16:02;;;;;;;4.47;3.87;;;;;;;18.24;48.93;99769.65;;;;-52
2020/12/09 09:19:02;;;;;;;4.35;3.72;;;;;;;18.27;48.95;99770.89;;;;-53
2020/12/09 09:22:02;;;;;;;4.04;3.64;;;;;;;18.32;49.01;99774.28;;;;-55
2020/12/09 09:25:02;;;;;;;4.34;3.89;;;;;;;18.34;48.92;99778.36;;;;-58
2020/12/09 09:28:02;;;;;;;4.86;3.96;;;;;;;18.38;48.85;99777.35;;;;-53
2020/12/09 09:31:02;;;;;;;4.64;3.69;;;;;;;18.41;48.95;99777.30;;;;-63
2020/12/09 09:34:02;;;;;;;3.98;3.60;;;;;;;18.46;49.05;99774.36;;;;-57
2020/12/09 09:37:02;;;;;;;3.92;3.59;;;;;;;18.50;48.88;99772.91;;;;-52
2020/12/09 09:40:02;;;;;;;4.35;3.69;;;;;;;18.53;48.96;99775.27;;;;-58
2020/12/09 09:43:02;;;;;;;3.97;3.63;;;;;;;18.56;48.79;99774.44;;;;-58
2020/12/09 09:46:02;;;;;;;3.65;3.35;;;;;;;18.61;49.01;99779.53;;;;-56
2020/12/09 09:49:02;;;;;;;3.77;3.41;;;;;;;18.66;48.87;99783.27;;;;-61
2020/12/09 09:52:02;;;;;;;5.81;4.37;;;;;;;18.64;48.36;99779.70;;;;-52
2020/12/09 09:55:02;;;;;;;6.59;4.41;;;;;;;18.64;47.93;99776.47;;;;-61
2020/12/09 09:58:02;;;;;;;5.49;4.92;;;;;;;18.63;48.04;99774.98;;;;-55
2020/12/09 10:01:02;;;;;;;6.65;5.35;;;;;;;18.64;47.31;99770.55;;;;-59
2020/12/09 10:04:06;;;;;;;7.04;5.49;;;;;;;18.65;47.30;99773.44;;;;-57
2020/12/09 10:07:03;;;;;;;5.79;5.10;;;;;;;18.65;47.11;99765.16;;;;-58
2020/12/09 10:10:03;;;;;;;7.14;5.21;;;;;;;18.67;46.88;99769.78;;;;-59
2020/12/09 10:13:02;;;;;;;7.07;5.07;;;;;;;18.69;47.20;99766.70;;;;-53
2020/12/09 10:16:02;;;;;;;5.89;5.13;;;;;;;18.71;47.15;99772.70;;;;-54
2020/12/09 10:19:03;;;;;;;5.97;5.19;;;;;;;18.74;47.24;99773.67;;;;-61
2020/12/09 10:22:02;;;;;;;5.40;4.90;;;;;;;18.75;47.04;99767.75;;;;-59
2020/12/09 10:25:02;;;;;;;6.07;5.15;;;;;;;18.77;46.82;99763.70;;;;-53
2020/12/09 10:28:02;;;;;;;5.77;4.89;;;;;;;18.83;46.92;99764.69;;;;-56
2020/12/09 10:31:02;;;;;;;7.21;4.81;;;;;;;18.89;47.42;99764.52;;;;-57
2020/12/09 10:34:02;;;;;;;5.04;4.51;;;;;;;18.94;47.26;99762.86;;;;-57
2020/12/09 10:37:02;;;;;;;4.77;4.33;;;;;;;18.97;47.48;99757.02;;;;-54
2020/12/09 10:40:02;;;;;;;4.84;4.37;;;;;;;19.02;47.66;99755.22;;;;-57
2020/12/09 10:43:02;;;;;;;5.68;4.37;;;;;;;19.07;47.71;99755.52;;;;-54
2020/12/09 10:46:02;;;;;;;4.63;4.19;;;;;;;19.11;47.76;99754.12;;;;-52
2020/12/09 10:49:02;;;;;;;5.37;4.08;;;;;;;19.16;47.76;99751.44;;;;-56
2020/12/09 10:52:02;;;;;;;4.79;4.36;;;;;;;19.17;47.41;99750.94;;;;-51
2020/12/09 10:55:03;;;;;;;8.18;5.07;;;;;;;19.20;47.51;99755.16;;;;-56
2020/12/09 10:58:02;;;;;;;7.49;4.35;;;;;;;19.22;47.20;99751.75;;;;-51
2020/12/09 11:01:02;;;;;;;4.82;3.90;;;;;;;19.25;47.53;99746.77;;;;-58
2020/12/09 11:04:02;;;;;;;4.40;4.00;;;;;;;19.28;47.58;99747.33;;;;-57
2020/12/09 11:07:02;;;;;;;6.31;3.91;;;;;;;19.29;47.43;99747.89;;;;-57
2020/12/09 11:10:02;;;;;;;4.03;3.71;;;;;;;19.28;47.46;99743.52;;;;-52
2020/12/09 11:13:02;;;;;;;4.33;3.83;;;;;;;19.28;47.38;99742.86;;;;-58
2020/12/09 11:16:02;;;;;;;5.12;3.86;;;;;;;19.30;47.27;99745.36;;;;-52
2020/12/09 11:19:02;;;;;;;4.03;3.63;;;;;;;19.31;47.31;99749.42;;;;-52
2020/12/09 11:22:02;;;;;;;7.29;3.70;;;;;;;19.32;47.26;99745.94;;;;-59
2020/12/09 11:25:03;;;;;;;5.05;4.05;;;;;;;19.33;47.28;99746.41;;;;-58
2020/12/09 11:28:02;;;;;;;4.39;3.61;;;;;;;19.33;47.28;99742.03;;;;-57
2020/12/09 11:31:02;;;;;;;4.06;3.66;;;;;;;19.34;47.21;99749.09;;;;-51
2020/12/09 11:34:02;;;;;;;4.16;3.76;;;;;;;19.35;47.24;99748.92;;;;-59
2020/12/09 11:37:02;;;;;;;4.41;3.61;;;;;;;19.37;47.22;99754.19;;;;-57
2020/12/09 11:40:02;;;;;;;4.50;3.67;;;;;;;19.38;47.23;99756.06;;;;-59
2020/12/09 11:43:02;;;;;;;4.07;3.63;;;;;;;19.39;47.21;99753.28;;;;-52
2020/12/09 11:46:02;;;;;;;3.82;3.47;;;;;;;19.41;47.16;99742.72;;;;-59
2020/12/09 11:49:02;;;;;;;3.79;3.33;;;;;;;19.43;47.08;99732.80;;;;-53
2020/12/09 11:52:02;;;;;;;4.01;3.61;;;;;;;19.44;47.12;99730.77;;;;-53
2020/12/09 11:55:03;;;;;;;4.05;3.57;;;;;;;19.45;47.09;99728.65;;;;-53
2020/12/09 11:58:02;;;;;;;3.67;3.37;;;;;;;19.46;47.13;99730.50;;;;-53
2020/12/09 12:01:02;;;;;;;4.02;3.44;;;;;;;19.47;47.11;99726.13;;;;-53
2020/12/09 12:04:02;;;;;;;3.97;3.57;;;;;;;19.47;47.10;99718.64;;;;-58
2020/12/09 12:07:02;;;;;;;3.87;3.54;;;;;;;19.49;47.08;99719.92;;;;-59
2020/12/09 12:10:02;;;;;;;4.61;3.38;;;;;;;19.49;47.07;99718.70;;;;-59
2020/12/09 12:13:04;;;;;;;3.65;3.34;;;;;;;19.51;47.05;99717.64;;;;-59
2020/12/09 12:16:02;;;;;;;3.82;3.37;;;;;;;19.52;46.99;99718.11;;;;-52
2020/12/09 12:19:02;;;;;;;3.93;3.59;;;;;;;19.53;47.03;99722.59;;;;-53
2020/12/09 12:22:02;;;;;;;3.59;3.29;;;;;;;19.56;46.98;99727.44;;;;-52
2020/12/09 12:25:02;;;;;;;4.09;3.55;;;;;;;19.55;46.97;99723.47;;;;-53
2020/12/09 12:28:02;;;;;;;3.76;3.35;;;;;;;19.57;46.95;99720.05;;;;-58
2020/12/09 12:31:02;;;;;;;3.34;3.08;;;;;;;19.56;46.94;99720.69;;;;-58
2020/12/09 12:34:02;;;;;;;3.70;3.40;;;;;;;19.56;46.98;99721.66;;;;-58
2020/12/09 12:37:02;;;;;;;3.57;3.27;;;;;;;19.57;46.99;99720.54;;;;-52
2020/12/09 12:40:02;;;;;;;4.13;3.40;;;;;;;19.58;46.93;99718.64;;;;-58
2020/12/09 12:43:02;;;;;;;3.60;3.30;;;;;;;19.59;46.91;99717.82;;;;-53
2020/12/09 12:46:02;;;;;;;4.53;3.37;;;;;;;19.61;46.99;99720.83;;;;-59
2020/12/09 12:49:02;;;;;;;4.02;3.48;;;;;;;19.63;47.22;99722.76;;;;-51
2020/12/09 12:52:02;;;;;;;3.61;3.31;;;;;;;19.66;47.43;99724.78;;;;-62
2020/12/09 12:55:02;;;;;;;3.63;3.33;;;;;;;19.67;47.40;99720.97;;;;-57
2020/12/09 12:58:02;;;;;;;3.58;3.15;;;;;;;19.70;47.51;99725.03;;;;-58
2020/12/09 13:01:02;;;;;;;3.75;3.39;;;;;;;19.72;47.59;99726.00;;;;-51
2020/12/09 13:04:03;;;;;;;3.65;3.35;;;;;;;19.75;47.65;99723.77;;;;-59
2020/12/09 13:07:02;;;;;;;4.23;3.44;;;;;;;19.76;47.60;99725.48;;;;-59
2020/12/09 13:10:02;;;;;;;7.33;4.35;;;;;;;19.76;47.15;99723.30;;;;-60
2020/12/09 13:13:02;;;;;;;4.53;3.81;;;;;;;19.75;46.74;99729.30;;;;-57
2020/12/09 13:16:03;;;;;;;5.47;3.73;;;;;;;19.77;47.41;99729.19;;;;-53
2020/12/09 13:19:02;;;;;;;5.72;3.81;;;;;;;19.81;47.41;99734.13;;;;-54
2020/12/09 13:22:04;;;;;;;4.68;3.62;;;;;;;19.83;47.36;99734.87;;;;-58
2020/12/09 13:25:02;;;;;;;3.99;3.33;;;;;;;19.84;47.54;99732.17;;;;-53
2020/12/09 13:28:02;;;;;;;5.05;3.65;;;;;;;19.87;47.49;99735.39;;;;-57
2020/12/09 13:31:02;;;;;;;5.52;3.61;;;;;;;19.89;47.42;99732.38;;;;-59
2020/12/09 13:34:02;;;;;;;4.78;3.61;;;;;;;19.89;47.34;99732.95;;;;-58
2020/12/09 13:37:02;;;;;;;5.62;3.65;;;;;;;19.90;47.27;99736.38;;;;-49
2020/12/09 13:40:02;;;;;;;3.92;3.52;;;;;;;19.91;47.03;99742.70;;;;-57
2020/12/09 13:43:02;;;;;;;3.91;3.59;;;;;;;19.94;47.33;99741.53;;;;-52
2020/12/09 13:46:02;;;;;;;3.84;3.41;;;;;;;19.95;47.46;99743.97;;;;-59
2020/12/09 13:49:02;;;;;;;3.91;3.47;;;;;;;19.98;47.59;99749.06;;;;-59
2020/12/09 13:52:02;;;;;;;3.83;3.45;;;;;;;19.98;47.50;99754.77;;;;-50
2020/12/09 13:55:02;;;;;;;4.18;3.78;;;;;;;20.01;47.48;99757.20;;;;-50
2020/12/09 13:58:04;;;;;;;3.92;3.40;;;;;;;20.01;47.47;99760.69;;;;-48
2020/12/09 14:01:02;;;;;;;4.39;3.43;;;;;;;20.02;47.39;99758.72;;;;-56
2020/12/09 14:04:02;;;;;;;4.15;3.33;;;;;;;20.01;47.17;99758.81;;;;-52
2020/12/09 14:07:02;;;;;;;4.37;3.25;;;;;;;19.99;47.03;99762.80;;;;-55
2020/12/09 14:10:02;;;;;;;7.38;3.47;;;;;;;19.98;47.09;99762.56;;;;-48
2020/12/09 14:13:02;;;;;;;7.76;5.23;;;;;;;19.96;46.54;99761.69;;;;-51
2020/12/09 14:16:02;;;;;;;6.57;4.04;;;;;;;19.97;46.49;99762.17;;;;-61
2020/12/09 14:19:06;;;;;;;4.62;3.79;;;;;;;19.95;46.57;99759.98;;;;-61
2020/12/09 14:22:03;;;;;;;4.01;3.60;;;;;;;19.96;46.61;99762.65;;;;-51
2020/12/09 14:25:03;;;;;;;3.83;3.47;;;;;;;19.95;46.62;99763.00;;;;-63
2020/12/09 14:28:02;;;;;;;7.19;4.07;;;;;;;19.95;46.61;99765.36;;;;-57
2020/12/09 14:31:02;;;;;;;6.31;4.07;;;;;;;19.96;46.43;99763.63;;;;-53
2020/12/09 14:34:02;;;;;;;6.62;3.97;;;;;;;19.95;46.45;99768.12;;;;-55
2020/12/09 14:37:02;;;;;;;5.31;3.92;;;;;;;19.94;46.56;99765.37;;;;-52
2020/12/09 14:40:02;;;;;;;5.23;3.82;;;;;;;19.95;46.58;99764.86;;;;-59
2020/12/09 14:43:04;;;;;;;3.93;3.54;;;;;;;20.00;46.75;99768.33;;;;-56
2020/12/09 14:46:02;;;;;;;5.49;3.53;;;;;;;20.02;46.80;99767.65;;;;-52
2020/12/09 14:49:02;;;;;;;4.34;3.69;;;;;;;20.05;46.93;99770.58;;;;-55
2020/12/09 14:52:02;;;;;;;4.44;3.50;;;;;;;20.03;46.73;99775.41;;;;-50
2020/12/09 14:55:02;;;;;;;6.67;3.55;;;;;;;20.02;46.75;99776.20;;;;-50
2020/12/09 14:58:02;;;;;;;4.79;3.49;;;;;;;20.01;46.65;99773.29;;;;-57
2020/12/09 15:01:02;;;;;;;6.11;3.51;;;;;;;19.99;46.71;99776.55;;;;-57
2020/12/09 15:04:02;;;;;;;6.37;3.56;;;;;;;20.01;46.84;99773.94;;;;-51
2020/12/09 15:07:02;;;;;;;4.63;3.45;;;;;;;20.03;47.00;99774.75;;;;-50
2020/12/09 15:10:03;;;;;;;6.17;3.45;;;;;;;20.07;47.15;99778.04;;;;-51
2020/12/09 15:13:02;;;;;;;4.25;3.58;;;;;;;20.08;47.15;99778.11;;;;-57
2020/12/09 15:16:02;;;;;;;5.49;3.67;;;;;;;20.09;47.09;99777.30;;;;-56
2020/12/09 15:19:02;;;;;;;5.19;3.68;;;;;;;20.08;46.94;99780.22;;;;-57
2020/12/09 15:22:02;;;;;;;3.48;3.18;;;;;;;20.07;46.90;99780.91;;;;-58
2020/12/09 15:25:02;;;;;;;3.67;3.27;;;;;;;20.07;46.89;99783.50;;;;-57
2020/12/09 15:28:02;;;;;;;3.22;2.92;;;;;;;20.06;46.88;99783.73;;;;-58
2020/12/09 15:31:02;;;;;;;3.74;3.30;;;;;;;20.06;46.84;99783.25;;;;-56
2020/12/09 15:34:02;;;;;;;4.27;3.45;;;;;;;20.05;46.88;99780.49;;;;-57
2020/12/09 15:37:02;;;;;;;3.72;3.31;;;;;;;20.04;46.83;99781.55;;;;-56
2020/12/09 15:40:02;;;;;;;3.43;3.13;;;;;;;20.04;46.81;99779.44;;;;-57
2020/12/09 15:43:02;;;;;;;3.84;3.37;;;;;;;20.04;46.80;99779.52;;;;-55
2020/12/09 15:46:02;;;;;;;3.48;3.18;;;;;;;20.04;46.84;99778.38;;;;-56
2020/12/09 15:49:02;;;;;;;3.55;3.22;;;;;;;20.04;46.89;99780.09;;;;-56
2020/12/09 15:52:02;;;;;;;3.25;2.95;;;;;;;20.04;46.78;99782.77;;;;-57
2020/12/09 15:55:02;;;;;;;3.43;3.13;;;;;;;20.05;46.84;99782.86;;;;-56
2020/12/09 15:58:02;;;;;;;3.56;3.15;;;;;;;20.05;46.85;99784.50;;;;-56
2020/12/09 16:01:02;;;;;;;3.53;3.14;;;;;;;20.04;46.80;99782.28;;;;-57
2020/12/09 16:04:02;;;;;;;3.72;3.29;;;;;;;20.05;46.81;99781.81;;;;-56
2020/12/09 16:07:02;;;;;;;3.45;3.15;;;;;;;20.04;46.81;99780.81;;;;-57
2020/12/09 16:10:02;;;;;;;3.48;3.18;;;;;;;20.05;46.85;99777.73;;;;-57
2020/12/09 16:13:02;;;;;;;3.45;3.13;;;;;;;20.05;46.81;99772.94;;;;-57
2020/12/09 16:16:05;;;;;;;5.21;3.35;;;;;;;20.05;46.86;99767.41;;;;-59
2020/12/09 16:19:02;;;;;;;4.36;3.95;;;;;;;20.03;46.71;99771.40;;;;-52
2020/12/09 16:22:02;;;;;;;6.19;4.67;;;;;;;20.03;46.26;99776.22;;;;-52
2020/12/09 16:25:02;;;;;;;6.12;4.86;;;;;;;20.03;46.38;99772.96;;;;-54
2020/12/09 16:28:02;;;;;;;5.60;4.79;;;;;;;20.00;46.28;99773.68;;;;-52
2020/12/09 16:31:02;;;;;;;5.24;4.59;;;;;;;20.00;46.09;99775.80;;;;-64
2020/12/09 16:34:02;;;;;;;5.38;4.65;;;;;;;20.01;46.32;99775.08;;;;-61
2020/12/09 16:37:02;;;;;;;5.10;4.60;;;;;;;19.98;46.30;99776.06;;;;-57
2020/12/09 16:40:02;;;;;;;5.71;4.91;;;;;;;19.97;46.22;99778.94;;;;-58
2020/12/09 16:43:02;;;;;;;6.39;4.89;;;;;;;19.96;46.17;99774.45;;;;-57
2020/12/09 16:46:02;;;;;;;5.23;4.45;;;;;;;19.94;46.15;99776.59;;;;-59
2020/12/09 16:49:02;;;;;;;5.28;4.75;;;;;;;19.93;46.26;99778.80;;;;-51
2020/12/09 16:52:02;;;;;;;5.25;4.73;;;;;;;19.91;46.33;99778.31;;;;-55
2020/12/09 16:55:02;;;;;;;5.04;4.50;;;;;;;19.89;46.09;99776.78;;;;-51